sensor_id;sensor_type;location;lat;lon;timestamp;temperature;humidity
47174;DHT22;36730;49.036;9.094;2023-06-22T00:01:10;28.00;81.00
47174;DHT22;36730;49.036;9.094;2023-06-22T00:03:35;28.00;81.10
47174;DHT22;36730;49.036;9.094;2023-06-22T00:06:01;28.00;81.30
47174;DHT22;36730;49.036;9.094;2023-06-22T00:08:26;27.90;81.40
47174;DHT22;36730;49.036;9.094;2023-06-22T00:10:52;27.90;81.40
47174;DHT22;36730;49.036;9.094;2023-06-22T00:13:17;27.90;81.40
47174;DHT22;36730;49.036;9.094;2023-06-22T00:15:43;27.90;81.40
47174;DHT22;36730;49.036;9.094;2023-06-22T00:18:09;27.90;81.40
47174;DHT22;36730;49.036;9.094;2023-06-22T00:20:35;27.90;81.30
47174;DHT22;36730;49.036;9.094;2023-06-22T00:23:04;27.90;81.30
47174;DHT22;36730;49.036;9.094;2023-06-22T00:25:36;27.80;81.40
47174;DHT22;36730;49.036;9.094;2023-06-22T00:28:02;27.90;81.50
47174;DHT22;36730;49.036;9.094;2023-06-22T00:30:29;27.80;81.60
47174;DHT22;36730;49.036;9.094;2023-06-22T00:32:55;27.80;81.50
47174;DHT22;36730;49.036;9.094;2023-06-22T00:35:21;27.80;81.70
47174;DHT22;36730;49.036;9.094;2023-06-22T00:37:46;27.80;81.70
47174;DHT22;36730;49.036;9.094;2023-06-22T00:40:12;27.80;81.50
47174;DHT22;36730;49.036;9.094;2023-06-22T00:42:38;27.70;81.70
47174;DHT22;36730;49.036;9.094;2023-06-22T00:45:04;27.70;81.60
47174;DHT22;36730;49.036;9.094;2023-06-22T00:47:30;27.70;81.90
47174;DHT22;36730;49.036;9.094;2023-06-22T00:49:56;27.70;82.00
47174;DHT22;36730;49.036;9.094;2023-06-22T00:52:21;27.70;82.00
47174;DHT22;36730;49.036;9.094;2023-06-22T00:54:51;27.70;81.90
47174;DHT22;36730;49.036;9.094;2023-06-22T00:57:17;27.70;82.00
47174;DHT22;36730;49.036;9.094;2023-06-22T00:59:44;27.70;81.90
47174;DHT22;36730;49.036;9.094;2023-06-22T01:02:09;27.60;82.10
47174;DHT22;36730;49.036;9.094;2023-06-22T01:04:35;27.60;82.40
47174;DHT22;36730;49.036;9.094;2023-06-22T01:07:14;27.50;82.50
47174;DHT22;36730;49.036;9.094;2023-06-22T01:09:47;27.50;82.90
47174;DHT22;36730;49.036;9.094;2023-06-22T01:12:14;27.50;82.80
47174;DHT22;36730;49.036;9.094;2023-06-22T01:14:50;27.50;82.60
47174;DHT22;36730;49.036;9.094;2023-06-22T01:17:18;27.50;82.30
47174;DHT22;36730;49.036;9.094;2023-06-22T01:19:45;27.60;82.30
47174;DHT22;36730;49.036;9.094;2023-06-22T01:22:15;27.60;82.20
47174;DHT22;36730;49.036;9.094;2023-06-22T01:24:45;27.60;82.20
47174;DHT22;36730;49.036;9.094;2023-06-22T01:29:52;27.60;82.20
47174;DHT22;36730;49.036;9.094;2023-06-22T01:32:18;27.60;82.00
47174;DHT22;36730;49.036;9.094;2023-06-22T01:34:44;27.60;82.00
47174;DHT22;36730;49.036;9.094;2023-06-22T01:37:11;27.50;82.00
47174;DHT22;36730;49.036;9.094;2023-06-22T01:39:36;27.60;81.90
47174;DHT22;36730;49.036;9.094;2023-06-22T01:42:02;27.50;82.00
47174;DHT22;36730;49.036;9.094;2023-06-22T01:44:28;27.50;81.90
47174;DHT22;36730;49.036;9.094;2023-06-22T01:46:53;27.50;82.10
47174;DHT22;36730;49.036;9.094;2023-06-22T01:49:19;27.50;82.10
47174;DHT22;36730;49.036;9.094;2023-06-22T01:51:45;27.50;82.10
47174;DHT22;36730;49.036;9.094;2023-06-22T01:54:10;27.50;82.00
47174;DHT22;36730;49.036;9.094;2023-06-22T01:56:36;27.50;81.90
47174;DHT22;36730;49.036;9.094;2023-06-22T01:59:09;27.50;82.20
47174;DHT22;36730;49.036;9.094;2023-06-22T02:01:40;27.50;81.90
47174;DHT22;36730;49.036;9.094;2023-06-22T02:04:08;27.50;82.00
47174;DHT22;36730;49.036;9.094;2023-06-22T02:06:37;27.50;82.20
47174;DHT22;36730;49.036;9.094;2023-06-22T02:09:08;27.40;82.20
47174;DHT22;36730;49.036;9.094;2023-06-22T02:11:34;27.40;82.10
47174;DHT22;36730;49.036;9.094;2023-06-22T02:14:00;27.40;82.10
47174;DHT22;36730;49.036;9.094;2023-06-22T02:16:25;27.50;82.00
47174;DHT22;36730;49.036;9.094;2023-06-22T02:18:55;27.50;82.10
47174;DHT22;36730;49.036;9.094;2023-06-22T02:21:20;27.40;81.90
47174;DHT22;36730;49.036;9.094;2023-06-22T02:23:46;27.40;82.10
47174;DHT22;36730;49.036;9.094;2023-06-22T02:26:11;27.40;82.10
47174;DHT22;36730;49.036;9.094;2023-06-22T02:28:37;27.40;81.90
47174;DHT22;36730;49.036;9.094;2023-06-22T02:31:03;27.50;82.00
47174;DHT22;36730;49.036;9.094;2023-06-22T02:33:28;27.40;82.00
47174;DHT22;36730;49.036;9.094;2023-06-22T02:35:54;27.40;81.90
47174;DHT22;36730;49.036;9.094;2023-06-22T02:38:19;27.40;81.90
47174;DHT22;36730;49.036;9.094;2023-06-22T02:40:45;27.40;82.00
47174;DHT22;36730;49.036;9.094;2023-06-22T02:43:11;27.40;81.90
47174;DHT22;36730;49.036;9.094;2023-06-22T02:45:36;27.40;81.70
47174;DHT22;36730;49.036;9.094;2023-06-22T02:48:01;27.40;81.70
47174;DHT22;36730;49.036;9.094;2023-06-22T02:50:27;27.30;81.70
47174;DHT22;36730;49.036;9.094;2023-06-22T02:52:53;27.30;81.80
47174;DHT22;36730;49.036;9.094;2023-06-22T02:55:18;27.30;81.90
47174;DHT22;36730;49.036;9.094;2023-06-22T02:57:44;27.40;81.90
47174;DHT22;36730;49.036;9.094;2023-06-22T03:00:11;27.40;81.60
47174;DHT22;36730;49.036;9.094;2023-06-22T03:02:46;27.30;81.30
47174;DHT22;36730;49.036;9.094;2023-06-22T03:05:13;27.10;81.30
47174;DHT22;36730;49.036;9.094;2023-06-22T03:07:42;26.90;82.20
47174;DHT22;36730;49.036;9.094;2023-06-22T03:22:21;26.20;84.80
47174;DHT22;36730;49.036;9.094;2023-06-22T03:24:46;26.00;85.60
47174;DHT22;36730;49.036;9.094;2023-06-22T03:27:12;25.90;86.40
47174;DHT22;36730;49.036;9.094;2023-06-22T03:29:38;25.90;87.00
47174;DHT22;36730;49.036;9.094;2023-06-22T03:32:03;25.80;87.50
47174;DHT22;36730;49.036;9.094;2023-06-22T03:34:31;25.70;88.20
47174;DHT22;36730;49.036;9.094;2023-06-22T03:36:58;25.70;88.80
47174;DHT22;36730;49.036;9.094;2023-06-22T03:39:24;25.60;89.80
47174;DHT22;36730;49.036;9.094;2023-06-22T03:41:49;25.50;90.30
47174;DHT22;36730;49.036;9.094;2023-06-22T03:44:15;25.40;90.30
47174;DHT22;36730;49.036;9.094;2023-06-22T03:46:40;25.40;90.60
47174;DHT22;36730;49.036;9.094;2023-06-22T03:49:06;25.40;90.60
47174;DHT22;36730;49.036;9.094;2023-06-22T03:51:32;25.30;91.00
47174;DHT22;36730;49.036;9.094;2023-06-22T03:53:57;25.30;90.80
47174;DHT22;36730;49.036;9.094;2023-06-22T03:56:23;25.20;91.00
47174;DHT22;36730;49.036;9.094;2023-06-22T03:58:48;25.20;91.30
47174;DHT22;36730;49.036;9.094;2023-06-22T04:01:14;25.10;91.50
47174;DHT22;36730;49.036;9.094;2023-06-22T04:03:42;25.10;91.50
47174;DHT22;36730;49.036;9.094;2023-06-22T04:06:08;25.10;91.40
47174;DHT22;36730;49.036;9.094;2023-06-22T04:08:33;25.00;91.30
47174;DHT22;36730;49.036;9.094;2023-06-22T04:10:59;25.00;91.90
47174;DHT22;36730;49.036;9.094;2023-06-22T04:13:24;24.90;92.00
47174;DHT22;36730;49.036;9.094;2023-06-22T04:15:50;24.90;92.20
47174;DHT22;36730;49.036;9.094;2023-06-22T04:18:15;24.90;92.40
47174;DHT22;36730;49.036;9.094;2023-06-22T04:20:41;24.80;92.80
47174;DHT22;36730;49.036;9.094;2023-06-22T04:23:06;24.90;93.30
47174;DHT22;36730;49.036;9.094;2023-06-22T04:25:31;24.80;92.70
47174;DHT22;36730;49.036;9.094;2023-06-22T04:27:57;24.90;93.20
47174;DHT22;36730;49.036;9.094;2023-06-22T04:30:23;24.90;93.30
47174;DHT22;36730;49.036;9.094;2023-06-22T04:32:48;24.90;93.60
47174;DHT22;36730;49.036;9.094;2023-06-22T04:35:23;25.00;92.80
47174;DHT22;36730;49.036;9.094;2023-06-22T04:37:49;24.90;93.00
47174;DHT22;36730;49.036;9.094;2023-06-22T04:40:15;25.00;93.00
47174;DHT22;36730;49.036;9.094;2023-06-22T04:42:41;25.00;93.60
47174;DHT22;36730;49.036;9.094;2023-06-22T04:45:18;25.00;93.40
47174;DHT22;36730;49.036;9.094;2023-06-22T04:47:43;25.00;94.70
47174;DHT22;36730;49.036;9.094;2023-06-22T04:50:13;25.00;93.90
47174;DHT22;36730;49.036;9.094;2023-06-22T04:52:39;25.00;94.50
47174;DHT22;36730;49.036;9.094;2023-06-22T04:55:05;25.00;94.30
47174;DHT22;36730;49.036;9.094;2023-06-22T04:57:30;25.00;94.60
47174;DHT22;36730;49.036;9.094;2023-06-22T05:00:00;25.00;94.50
47174;DHT22;36730;49.036;9.094;2023-06-22T05:02:41;25.00;95.20
47174;DHT22;36730;49.036;9.094;2023-06-22T05:05:07;25.00;94.70
47174;DHT22;36730;49.036;9.094;2023-06-22T05:07:35;25.00;95.00
47174;DHT22;36730;49.036;9.094;2023-06-22T05:10:02;25.10;94.80
47174;DHT22;36730;49.036;9.094;2023-06-22T05:12:29;25.10;95.10
47174;DHT22;36730;49.036;9.094;2023-06-22T05:14:55;25.10;94.60
47174;DHT22;36730;49.036;9.094;2023-06-22T05:17:20;25.10;94.60
47174;DHT22;36730;49.036;9.094;2023-06-22T05:19:46;25.10;94.10
47174;DHT22;36730;49.036;9.094;2023-06-22T05:22:15;25.10;94.70
47174;DHT22;36730;49.036;9.094;2023-06-22T05:24:40;25.10;94.50
47174;DHT22;36730;49.036;9.094;2023-06-22T05:27:06;25.10;94.60
47174;DHT22;36730;49.036;9.094;2023-06-22T05:29:31;25.10;94.60
47174;DHT22;36730;49.036;9.094;2023-06-22T05:31:57;25.10;94.40
47174;DHT22;36730;49.036;9.094;2023-06-22T05:34:22;25.10;94.40
47174;DHT22;36730;49.036;9.094;2023-06-22T05:36:48;25.10;94.10
47174;DHT22;36730;49.036;9.094;2023-06-22T05:39:14;25.10;94.50
47174;DHT22;36730;49.036;9.094;2023-06-22T05:41:40;25.20;94.50
47174;DHT22;36730;49.036;9.094;2023-06-22T05:44:05;25.20;94.80
47174;DHT22;36730;49.036;9.094;2023-06-22T05:46:31;25.20;94.50
47174;DHT22;36730;49.036;9.094;2023-06-22T05:48:56;25.20;94.50
47174;DHT22;36730;49.036;9.094;2023-06-22T05:51:22;25.20;94.90
47174;DHT22;36730;49.036;9.094;2023-06-22T05:53:47;25.20;94.80
47174;DHT22;36730;49.036;9.094;2023-06-22T05:56:15;25.20;94.70
47174;DHT22;36730;49.036;9.094;2023-06-22T05:58:41;25.30;95.10
47174;DHT22;36730;49.036;9.094;2023-06-22T06:01:06;25.30;95.90
47174;DHT22;36730;49.036;9.094;2023-06-22T06:03:32;25.30;94.90
47174;DHT22;36730;49.036;9.094;2023-06-22T06:05:57;25.30;95.00
47174;DHT22;36730;49.036;9.094;2023-06-22T06:08:23;25.40;95.30
47174;DHT22;36730;49.036;9.094;2023-06-22T06:10:48;25.40;94.60
47174;DHT22;36730;49.036;9.094;2023-06-22T06:13:14;25.50;94.70
47174;DHT22;36730;49.036;9.094;2023-06-22T06:15:39;25.50;94.20
47174;DHT22;36730;49.036;9.094;2023-06-22T06:18:05;25.50;94.80
47174;DHT22;36730;49.036;9.094;2023-06-22T06:20:32;25.50;94.90
47174;DHT22;36730;49.036;9.094;2023-06-22T06:22:57;25.50;94.60
47174;DHT22;36730;49.036;9.094;2023-06-22T06:25:23;25.50;94.50
47174;DHT22;36730;49.036;9.094;2023-06-22T06:27:49;25.60;95.40
47174;DHT22;36730;49.036;9.094;2023-06-22T06:30:15;25.50;95.70
47174;DHT22;36730;49.036;9.094;2023-06-22T06:32:41;25.60;95.80
47174;DHT22;36730;49.036;9.094;2023-06-22T06:35:08;25.60;95.10
47174;DHT22;36730;49.036;9.094;2023-06-22T06:37:37;25.70;94.90
47174;DHT22;36730;49.036;9.094;2023-06-22T06:40:03;25.70;94.70
47174;DHT22;36730;49.036;9.094;2023-06-22T06:42:30;25.70;95.00
47174;DHT22;36730;49.036;9.094;2023-06-22T06:44:56;25.80;94.70
47174;DHT22;36730;49.036;9.094;2023-06-22T06:47:22;25.80;94.50
47174;DHT22;36730;49.036;9.094;2023-06-22T06:49:47;25.80;94.30
47174;DHT22;36730;49.036;9.094;2023-06-22T06:52:13;25.90;94.40
47174;DHT22;36730;49.036;9.094;2023-06-22T06:54:38;25.90;94.20
47174;DHT22;36730;49.036;9.094;2023-06-22T06:57:04;26.00;94.40
47174;DHT22;36730;49.036;9.094;2023-06-22T06:59:29;26.10;94.30
47174;DHT22;36730;49.036;9.094;2023-06-22T07:01:55;26.10;94.10
47174;DHT22;36730;49.036;9.094;2023-06-22T07:04:21;26.10;93.50
47174;DHT22;36730;49.036;9.094;2023-06-22T07:06:46;26.20;93.50
47174;DHT22;36730;49.036;9.094;2023-06-22T07:09:12;26.20;93.30
47174;DHT22;36730;49.036;9.094;2023-06-22T07:11:37;26.30;93.00
47174;DHT22;36730;49.036;9.094;2023-06-22T07:14:03;26.40;93.20
47174;DHT22;36730;49.036;9.094;2023-06-22T07:16:28;26.40;92.80
47174;DHT22;36730;49.036;9.094;2023-06-22T07:18:55;26.50;92.80
47174;DHT22;36730;49.036;9.094;2023-06-22T07:21:20;26.50;94.30
47174;DHT22;36730;49.036;9.094;2023-06-22T07:23:46;26.60;92.90
47174;DHT22;36730;49.036;9.094;2023-06-22T07:26:11;26.70;92.20
47174;DHT22;36730;49.036;9.094;2023-06-22T07:28:38;26.70;91.90
47174;DHT22;36730;49.036;9.094;2023-06-22T07:31:05;26.70;91.90
47174;DHT22;36730;49.036;9.094;2023-06-22T07:33:31;26.80;91.80
47174;DHT22;36730;49.036;9.094;2023-06-22T07:35:57;26.80;91.20
47174;DHT22;36730;49.036;9.094;2023-06-22T07:38:22;26.90;90.20
47174;DHT22;36730;49.036;9.094;2023-06-22T07:40:47;27.00;89.30
47174;DHT22;36730;49.036;9.094;2023-06-22T07:43:13;27.00;86.50
47174;DHT22;36730;49.036;9.094;2023-06-22T07:45:38;27.10;86.20
47174;DHT22;36730;49.036;9.094;2023-06-22T07:48:06;27.10;85.60
47174;DHT22;36730;49.036;9.094;2023-06-22T07:50:32;27.20;85.10
47174;DHT22;36730;49.036;9.094;2023-06-22T07:52:57;27.20;85.10
47174;DHT22;36730;49.036;9.094;2023-06-22T07:55:23;27.30;84.30
47174;DHT22;36730;49.036;9.094;2023-06-22T07:57:48;27.30;83.70
47174;DHT22;36730;49.036;9.094;2023-06-22T08:00:14;27.30;83.10
47174;DHT22;36730;49.036;9.094;2023-06-22T08:02:40;27.40;83.00
47174;DHT22;36730;49.036;9.094;2023-06-22T08:05:07;27.50;83.00
47174;DHT22;36730;49.036;9.094;2023-06-22T08:07:34;27.60;83.70
47174;DHT22;36730;49.036;9.094;2023-06-22T08:10:00;27.60;81.60
47174;DHT22;36730;49.036;9.094;2023-06-22T08:12:26;27.70;80.60
47174;DHT22;36730;49.036;9.094;2023-06-22T08:14:51;27.70;81.60
47174;DHT22;36730;49.036;9.094;2023-06-22T08:17:17;27.80;80.50
47174;DHT22;36730;49.036;9.094;2023-06-22T08:19:42;27.80;79.60
47174;DHT22;36730;49.036;9.094;2023-06-22T08:22:07;27.90;79.70
47174;DHT22;36730;49.036;9.094;2023-06-22T08:24:33;28.00;77.80
47174;DHT22;36730;49.036;9.094;2023-06-22T08:26:58;28.00;76.80
47174;DHT22;36730;49.036;9.094;2023-06-22T08:29:24;28.00;77.20
47174;DHT22;36730;49.036;9.094;2023-06-22T08:31:50;28.00;76.70
47174;DHT22;36730;49.036;9.094;2023-06-22T08:34:15;28.00;76.80
47174;DHT22;36730;49.036;9.094;2023-06-22T08:36:40;28.00;76.50
47174;DHT22;36730;49.036;9.094;2023-06-22T08:39:10;28.00;77.00
47174;DHT22;36730;49.036;9.094;2023-06-22T08:41:35;28.00;77.10
47174;DHT22;36730;49.036;9.094;2023-06-22T08:44:01;28.10;77.30
47174;DHT22;36730;49.036;9.094;2023-06-22T08:46:26;28.10;77.40
47174;DHT22;36730;49.036;9.094;2023-06-22T08:48:57;28.10;78.60
47174;DHT22;36730;49.036;9.094;2023-06-22T08:51:23;28.10;77.50
47174;DHT22;36730;49.036;9.094;2023-06-22T08:53:49;28.10;77.30
47174;DHT22;36730;49.036;9.094;2023-06-22T08:56:14;28.10;77.80
47174;DHT22;36730;49.036;9.094;2023-06-22T08:58:40;28.20;77.80
47174;DHT22;36730;49.036;9.094;2023-06-22T09:01:05;28.20;77.70
47174;DHT22;36730;49.036;9.094;2023-06-22T09:03:31;28.10;78.50
47174;DHT22;36730;49.036;9.094;2023-06-22T09:05:58;28.10;78.90
47174;DHT22;36730;49.036;9.094;2023-06-22T09:08:23;28.00;79.40
47174;DHT22;36730;49.036;9.094;2023-06-22T09:10:49;28.00;80.10
47174;DHT22;36730;49.036;9.094;2023-06-22T09:13:14;28.10;80.70
47174;DHT22;36730;49.036;9.094;2023-06-22T09:15:40;28.10;80.70
47174;DHT22;36730;49.036;9.094;2023-06-22T09:18:05;28.10;80.60
47174;DHT22;36730;49.036;9.094;2023-06-22T09:20:31;28.10;80.70
47174;DHT22;36730;49.036;9.094;2023-06-22T09:22:56;28.10;81.10
47174;DHT22;36730;49.036;9.094;2023-06-22T09:25:22;28.10;80.70
47174;DHT22;36730;49.036;9.094;2023-06-22T09:27:47;28.10;79.80
47174;DHT22;36730;49.036;9.094;2023-06-22T09:30:13;28.10;80.20
47174;DHT22;36730;49.036;9.094;2023-06-22T09:32:38;28.20;79.80
47174;DHT22;36730;49.036;9.094;2023-06-22T09:35:04;28.20;79.60
47174;DHT22;36730;49.036;9.094;2023-06-22T09:37:33;28.30;79.30
47174;DHT22;36730;49.036;9.094;2023-06-22T09:39:59;28.40;79.10
47174;DHT22;36730;49.036;9.094;2023-06-22T09:42:25;28.40;78.80
47174;DHT22;36730;49.036;9.094;2023-06-22T09:44:50;28.50;78.50
47174;DHT22;36730;49.036;9.094;2023-06-22T09:47:16;28.50;78.50
47174;DHT22;36730;49.036;9.094;2023-06-22T09:49:41;28.50;79.20
47174;DHT22;36730;49.036;9.094;2023-06-22T09:52:07;28.60;78.90
47174;DHT22;36730;49.036;9.094;2023-06-22T09:54:32;28.70;79.00
47174;DHT22;36730;49.036;9.094;2023-06-22T09:56:58;28.70;79.00
47174;DHT22;36730;49.036;9.094;2023-06-22T09:59:23;28.80;78.40
47174;DHT22;36730;49.036;9.094;2023-06-22T10:01:48;28.80;78.00
47174;DHT22;36730;49.036;9.094;2023-06-22T10:04:14;28.90;77.30
47174;DHT22;36730;49.036;9.094;2023-06-22T10:06:39;28.90;77.70
47174;DHT22;36730;49.036;9.094;2023-06-22T10:09:06;29.00;76.90
47174;DHT22;36730;49.036;9.094;2023-06-22T10:11:33;29.00;77.50
47174;DHT22;36730;49.036;9.094;2023-06-22T10:14:00;29.10;77.30
47174;DHT22;36730;49.036;9.094;2023-06-22T10:16:32;29.20;76.90
47174;DHT22;36730;49.036;9.094;2023-06-22T10:18:58;29.30;76.10
47174;DHT22;36730;49.036;9.094;2023-06-22T10:21:23;29.30;78.00
47174;DHT22;36730;49.036;9.094;2023-06-22T10:23:49;29.30;76.40
47174;DHT22;36730;49.036;9.094;2023-06-22T10:26:15;29.40;76.10
47174;DHT22;36730;49.036;9.094;2023-06-22T10:28:40;29.40;76.40
47174;DHT22;36730;49.036;9.094;2023-06-22T10:31:07;29.50;76.00
47174;DHT22;36730;49.036;9.094;2023-06-22T10:33:33;29.50;75.60
47174;DHT22;36730;49.036;9.094;2023-06-22T10:35:58;29.50;75.10
47174;DHT22;36730;49.036;9.094;2023-06-22T10:38:24;29.60;75.40
47174;DHT22;36730;49.036;9.094;2023-06-22T10:40:49;29.60;75.60
47174;DHT22;36730;49.036;9.094;2023-06-22T10:43:14;29.70;75.90
47174;DHT22;36730;49.036;9.094;2023-06-22T10:45:40;29.70;76.50
47174;DHT22;36730;49.036;9.094;2023-06-22T10:48:05;29.80;75.40
47174;DHT22;36730;49.036;9.094;2023-06-22T10:50:31;29.80;75.70
47174;DHT22;36730;49.036;9.094;2023-06-22T10:52:57;29.80;75.50
47174;DHT22;36730;49.036;9.094;2023-06-22T10:55:22;29.90;75.40
47174;DHT22;36730;49.036;9.094;2023-06-22T10:57:48;29.90;75.80
47174;DHT22;36730;49.036;9.094;2023-06-22T11:00:15;29.90;75.90
47174;DHT22;36730;49.036;9.094;2023-06-22T11:02:41;29.90;76.00
47174;DHT22;36730;49.036;9.094;2023-06-22T11:05:06;30.00;75.70
47174;DHT22;36730;49.036;9.094;2023-06-22T11:07:32;30.00;75.30
47174;DHT22;36730;49.036;9.094;2023-06-22T11:09:58;30.00;75.20
47174;DHT22;36730;49.036;9.094;2023-06-22T11:12:23;30.10;75.40
47174;DHT22;36730;49.036;9.094;2023-06-22T11:14:49;30.10;75.50
47174;DHT22;36730;49.036;9.094;2023-06-22T11:17:19;30.10;76.10
47174;DHT22;36730;49.036;9.094;2023-06-22T11:19:45;30.10;75.70
47174;DHT22;36730;49.036;9.094;2023-06-22T11:22:10;30.20;75.10
47174;DHT22;36730;49.036;9.094;2023-06-22T11:24:36;30.30;75.10
47174;DHT22;36730;49.036;9.094;2023-06-22T11:27:01;30.30;75.20
47174;DHT22;36730;49.036;9.094;2023-06-22T11:29:27;30.30;74.70
47174;DHT22;36730;49.036;9.094;2023-06-22T11:31:52;30.40;74.80
47174;DHT22;36730;49.036;9.094;2023-06-22T11:34:18;30.40;74.20
47174;DHT22;36730;49.036;9.094;2023-06-22T11:36:44;30.40;73.50
47174;DHT22;36730;49.036;9.094;2023-06-22T11:39:10;30.50;74.00
47174;DHT22;36730;49.036;9.094;2023-06-22T11:41:36;30.50;74.10
47174;DHT22;36730;49.036;9.094;2023-06-22T11:44:01;30.50;73.60
47174;DHT22;36730;49.036;9.094;2023-06-22T11:46:27;30.50;74.00
47174;DHT22;36730;49.036;9.094;2023-06-22T11:48:52;30.50;72.90
47174;DHT22;36730;49.036;9.094;2023-06-22T11:51:18;30.60;73.40
47174;DHT22;36730;49.036;9.094;2023-06-22T11:53:43;30.60;74.20
47174;DHT22;36730;49.036;9.094;2023-06-22T11:56:09;30.60;73.60
47174;DHT22;36730;49.036;9.094;2023-06-22T11:58:34;30.50;73.70
47174;DHT22;36730;49.036;9.094;2023-06-22T12:00:59;30.50;73.40
47174;DHT22;36730;49.036;9.094;2023-06-22T12:03:25;30.50;73.70
47174;DHT22;36730;49.036;9.094;2023-06-22T12:05:50;30.50;73.50
47174;DHT22;36730;49.036;9.094;2023-06-22T12:08:19;30.50;74.00
47174;DHT22;36730;49.036;9.094;2023-06-22T12:10:44;30.50;74.00
47174;DHT22;36730;49.036;9.094;2023-06-22T12:13:10;30.50;73.80
47174;DHT22;36730;49.036;9.094;2023-06-22T12:15:35;30.50;73.50
47174;DHT22;36730;49.036;9.094;2023-06-22T12:18:01;30.60;74.00
47174;DHT22;36730;49.036;9.094;2023-06-22T12:20:26;30.50;73.60
47174;DHT22;36730;49.036;9.094;2023-06-22T12:22:52;30.60;74.20
47174;DHT22;36730;49.036;9.094;2023-06-22T12:25:18;30.60;73.90
47174;DHT22;36730;49.036;9.094;2023-06-22T12:27:43;30.60;73.90
47174;DHT22;36730;49.036;9.094;2023-06-22T12:30:08;30.60;73.70
47174;DHT22;36730;49.036;9.094;2023-06-22T12:32:34;30.60;73.60
47174;DHT22;36730;49.036;9.094;2023-06-22T12:35:00;30.60;74.30
47174;DHT22;36730;49.036;9.094;2023-06-22T12:37:25;30.60;76.10
47174;DHT22;36730;49.036;9.094;2023-06-22T12:39:51;30.60;75.70
47174;DHT22;36730;49.036;9.094;2023-06-22T12:42:16;30.60;76.90
47174;DHT22;36730;49.036;9.094;2023-06-22T12:44:42;30.60;75.70
47174;DHT22;36730;49.036;9.094;2023-06-22T12:47:08;30.60;76.10
47174;DHT22;36730;49.036;9.094;2023-06-22T12:49:34;30.60;77.40
47174;DHT22;36730;49.036;9.094;2023-06-22T12:51:59;30.60;76.60
47174;DHT22;36730;49.036;9.094;2023-06-22T12:54:25;30.60;76.00
47174;DHT22;36730;49.036;9.094;2023-06-22T12:56:50;30.60;78.10
47174;DHT22;36730;49.036;9.094;2023-06-22T12:59:16;30.60;77.10
47174;DHT22;36730;49.036;9.094;2023-06-22T13:01:42;30.70;77.50
47174;DHT22;36730;49.036;9.094;2023-06-22T13:04:09;30.70;77.20
47174;DHT22;36730;49.036;9.094;2023-06-22T13:06:36;30.70;76.60
47174;DHT22;36730;49.036;9.094;2023-06-22T13:09:02;30.70;77.00
47174;DHT22;36730;49.036;9.094;2023-06-22T13:11:29;30.80;77.20
47174;DHT22;36730;49.036;9.094;2023-06-22T13:13:54;30.80;76.70
47174;DHT22;36730;49.036;9.094;2023-06-22T13:16:20;30.90;76.30
47174;DHT22;36730;49.036;9.094;2023-06-22T13:18:45;30.80;75.00
47174;DHT22;36730;49.036;9.094;2023-06-22T13:21:10;30.90;74.50
47174;DHT22;36730;49.036;9.094;2023-06-22T13:23:36;30.90;74.30
47174;DHT22;36730;49.036;9.094;2023-06-22T13:26:01;30.90;74.00
47174;DHT22;36730;49.036;9.094;2023-06-22T13:28:28;31.00;73.90
47174;DHT22;36730;49.036;9.094;2023-06-22T13:30:55;31.00;74.10
47174;DHT22;36730;49.036;9.094;2023-06-22T13:33:20;31.00;74.10
47174;DHT22;36730;49.036;9.094;2023-06-22T13:35:46;31.00;74.20
47174;DHT22;36730;49.036;9.094;2023-06-22T13:38:11;31.00;74.60
47174;DHT22;36730;49.036;9.094;2023-06-22T13:40:37;31.00;74.60
47174;DHT22;36730;49.036;9.094;2023-06-22T13:43:05;31.10;74.80
47174;DHT22;36730;49.036;9.094;2023-06-22T13:45:31;31.10;74.60
47174;DHT22;36730;49.036;9.094;2023-06-22T13:47:57;31.20;74.60
47174;DHT22;36730;49.036;9.094;2023-06-22T13:50:22;31.20;74.60
47174;DHT22;36730;49.036;9.094;2023-06-22T13:52:48;31.20;74.50
47174;DHT22;36730;49.036;9.094;2023-06-22T13:55:13;31.20;75.40
47174;DHT22;36730;49.036;9.094;2023-06-22T13:57:39;31.20;73.70
47174;DHT22;36730;49.036;9.094;2023-06-22T14:00:05;31.30;74.10
47174;DHT22;36730;49.036;9.094;2023-06-22T14:02:31;31.30;74.20
47174;DHT22;36730;49.036;9.094;2023-06-22T14:04:56;31.40;76.10
47174;DHT22;36730;49.036;9.094;2023-06-22T14:07:22;31.40;74.60
47174;DHT22;36730;49.036;9.094;2023-06-22T14:09:49;31.40;74.00
47174;DHT22;36730;49.036;9.094;2023-06-22T14:12:15;31.40;73.40
47174;DHT22;36730;49.036;9.094;2023-06-22T14:14:41;31.50;73.30
47174;DHT22;36730;49.036;9.094;2023-06-22T14:17:06;31.50;73.90
47174;DHT22;36730;49.036;9.094;2023-06-22T14:19:32;31.50;72.80
47174;DHT22;36730;49.036;9.094;2023-06-22T14:21:57;31.50;73.00
47174;DHT22;36730;49.036;9.094;2023-06-22T14:24:23;31.50;73.80
47174;DHT22;36730;49.036;9.094;2023-06-22T14:26:48;31.50;72.80
47174;DHT22;36730;49.036;9.094;2023-06-22T14:29:14;31.60;73.80
47174;DHT22;36730;49.036;9.094;2023-06-22T14:31:39;31.60;74.00
47174;DHT22;36730;49.036;9.094;2023-06-22T14:34:05;31.60;73.40
47174;DHT22;36730;49.036;9.094;2023-06-22T14:36:31;31.60;75.40
47174;DHT22;36730;49.036;9.094;2023-06-22T14:38:56;31.60;74.20
47174;DHT22;36730;49.036;9.094;2023-06-22T14:41:22;31.70;73.10
47174;DHT22;36730;49.036;9.094;2023-06-22T14:43:48;31.70;74.00
47174;DHT22;36730;49.036;9.094;2023-06-22T14:46:15;31.70;73.90
47174;DHT22;36730;49.036;9.094;2023-06-22T14:48:41;31.70;74.00
47174;DHT22;36730;49.036;9.094;2023-06-22T14:51:07;31.70;73.10
47174;DHT22;36730;49.036;9.094;2023-06-22T14:53:33;31.70;72.80
47174;DHT22;36730;49.036;9.094;2023-06-22T14:55:58;31.80;72.90
47174;DHT22;36730;49.036;9.094;2023-06-22T14:58:26;31.80;73.70
47174;DHT22;36730;49.036;9.094;2023-06-22T15:00:52;31.90;72.20
47174;DHT22;36730;49.036;9.094;2023-06-22T15:03:17;31.90;72.80
47174;DHT22;36730;49.036;9.094;2023-06-22T15:05:46;32.00;72.80
47174;DHT22;36730;49.036;9.094;2023-06-22T15:08:12;32.00;72.20
47174;DHT22;36730;49.036;9.094;2023-06-22T15:10:37;32.00;72.30
47174;DHT22;36730;49.036;9.094;2023-06-22T15:13:03;32.00;72.40
47174;DHT22;36730;49.036;9.094;2023-06-22T15:15:28;32.00;72.10
47174;DHT22;36730;49.036;9.094;2023-06-22T15:17:54;32.10;72.40
47174;DHT22;36730;49.036;9.094;2023-06-22T15:20:19;32.10;71.70
47174;DHT22;36730;49.036;9.094;2023-06-22T15:22:44;32.10;72.40
47174;DHT22;36730;49.036;9.094;2023-06-22T15:25:10;32.20;73.40
47174;DHT22;36730;49.036;9.094;2023-06-22T15:27:35;32.20;73.10
47174;DHT22;36730;49.036;9.094;2023-06-22T15:30:01;32.20;71.50
47174;DHT22;36730;49.036;9.094;2023-06-22T15:32:28;32.20;70.60
47174;DHT22;36730;49.036;9.094;2023-06-22T15:34:54;32.20;69.90
47174;DHT22;36730;49.036;9.094;2023-06-22T15:37:19;32.20;70.20